createdAt,value
2019-06-08T00:01:05.747Z,3.40
2019-06-08T00:03:37.319Z,3.33
2019-06-08T00:06:10.753Z,3.53
2019-06-08T00:08:42.190Z,3.30
2019-06-08T00:11:13.327Z,3.47
2019-06-08T00:13:44.745Z,3.17
2019-06-08T00:16:17.173Z,3.70
2019-06-08T00:18:48.399Z,2.90
2019-06-08T00:21:20.150Z,3.40
2019-06-08T00:23:51.507Z,3.50
2019-06-08T00:26:22.427Z,3.20
2019-06-08T00:28:53.448Z,3.17
2019-06-08T00:31:24.474Z,3.10
2019-06-08T00:33:56.927Z,3.97
2019-06-08T00:36:27.915Z,2.80
2019-06-08T00:38:59.480Z,3.10
2019-06-08T00:41:30.500Z,3.13
2019-06-08T00:44:01.549Z,3.20
2019-06-08T00:46:32.540Z,3.20
2019-06-08T00:49:03.601Z,3.47
2019-06-08T00:51:34.582Z,3.00
2019-06-08T00:54:05.530Z,3.20
2019-06-08T00:56:36.680Z,3.00
2019-06-08T00:59:09.658Z,2.70
2019-06-08T01:01:40.695Z,3.10
2019-06-08T01:04:12.124Z,2.97
2019-06-08T01:06:44.085Z,3.17
2019-06-08T01:09:15.684Z,2.70
2019-06-08T01:11:46.684Z,2.53
2019-06-08T01:14:18.950Z,2.50
2019-06-08T01:16:51.136Z,2.30
2019-06-08T01:19:23.131Z,2.70
2019-06-08T01:21:53.800Z,2.00
2019-06-08T01:24:25.691Z,2.37
2019-06-08T01:26:57.225Z,1.90
2019-06-08T01:29:28.327Z,1.50
2019-06-08T01:31:59.529Z,1.80
2019-06-08T01:34:30.954Z,1.80
2019-06-08T01:37:03.362Z,1.77
2019-06-08T01:39:34.839Z,1.90
2019-06-08T01:42:05.140Z,1.80
2019-06-08T01:44:36.807Z,1.80
2019-06-08T01:47:07.009Z,1.80
2019-06-08T01:49:37.692Z,2.13
2019-06-08T01:52:08.237Z,2.13
2019-06-08T01:54:38.800Z,1.93
2019-06-08T01:57:09.428Z,2.00
2019-06-08T01:59:40.323Z,1.80
2019-06-08T02:02:10.644Z,2.10
2019-06-08T02:04:40.984Z,2.27
2019-06-08T02:07:11.732Z,1.60
2019-06-08T02:09:42.369Z,1.80
2019-06-08T02:12:12.718Z,1.63
2019-06-08T02:14:43.369Z,1.67
2019-06-08T02:17:13.677Z,1.90
2019-06-08T02:19:44.094Z,2.20
2019-06-08T02:22:14.360Z,2.00
2019-06-08T02:24:45.166Z,2.00
2019-06-08T02:27:15.504Z,1.90
2019-06-08T02:29:46.546Z,1.93
2019-06-08T02:32:16.836Z,2.30
2019-06-08T02:34:48.946Z,1.97
2019-06-08T02:37:19.207Z,2.30
2019-06-08T02:39:49.448Z,2.00
2019-06-08T02:42:20.483Z,2.30
2019-06-08T02:44:51.449Z,1.83
2019-06-08T02:47:22.178Z,2.00
2019-06-08T02:49:52.861Z,1.90
2019-06-08T02:52:24.685Z,2.03
2019-06-08T02:54:55.455Z,1.70
2019-06-08T02:57:29.051Z,2.10
2019-06-08T03:00:01.340Z,4.20
2019-06-08T03:02:33.912Z,1.63
2019-06-08T03:05:05.633Z,1.67
2019-06-08T03:07:39.017Z,1.50
2019-06-08T03:10:09.884Z,1.60
2019-06-08T03:12:42.460Z,1.43
2019-06-08T03:15:14.903Z,1.40
2019-06-08T03:17:45.680Z,1.80
2019-06-08T03:20:16.300Z,1.43
2019-06-08T03:22:46.642Z,1.20
2019-06-08T03:25:18.588Z,1.40
2019-06-08T03:27:49.282Z,1.53
2019-06-08T03:30:20.076Z,1.40
2019-06-08T03:32:55.541Z,1.27
2019-06-08T03:35:23.275Z,1.20
2019-06-08T03:37:53.551Z,1.30
2019-06-08T03:40:25.128Z,1.40
2019-06-08T03:42:55.981Z,1.10
2019-06-08T03:45:27.760Z,1.47
2019-06-08T03:47:58.300Z,1.57
2019-06-08T03:50:28.539Z,1.50
2019-06-08T03:52:59.749Z,1.23
2019-06-08T03:55:30.582Z,1.20
2019-06-08T03:58:01.116Z,1.20
2019-06-08T04:00:31.636Z,1.10
2019-06-08T04:03:01.854Z,1.50
2019-06-08T04:05:32.065Z,1.23
2019-06-08T04:08:02.996Z,1.10
2019-06-08T04:10:33.596Z,1.10
2019-06-08T04:13:03.848Z,0.97
2019-06-08T04:15:34.211Z,1.57
2019-06-08T04:18:04.730Z,0.90
2019-06-08T04:20:35.065Z,1.23
2019-06-08T04:23:05.348Z,1.13
2019-06-08T04:25:35.966Z,1.20
2019-06-08T04:28:07.753Z,1.10
2019-06-08T04:30:38.734Z,1.40
2019-06-08T04:33:09.070Z,2.33
2019-06-08T04:35:42.763Z,2.67
2019-06-08T04:38:13.504Z,2.70
2019-06-08T04:40:45.972Z,3.23
2019-06-08T04:43:17.082Z,3.10
2019-06-08T04:45:48.091Z,2.67
2019-06-08T04:48:17.949Z,4.13
2019-06-08T04:50:49.622Z,2.60
2019-06-08T04:53:19.258Z,2.40
2019-06-08T04:55:49.282Z,1.50
2019-06-08T04:58:19.076Z,1.43
2019-06-08T05:00:50.709Z,1.17
2019-06-08T05:03:20.062Z,1.33
2019-06-08T05:05:50.343Z,1.20
2019-06-08T05:08:20.348Z,1.00
2019-06-08T05:10:49.981Z,1.00
2019-06-08T05:13:19.620Z,1.50
2019-06-08T05:15:50.226Z,0.97
2019-06-08T05:18:20.151Z,1.00
2019-06-08T05:20:51.453Z,0.63
2019-06-08T05:23:21.276Z,1.03
2019-06-08T05:25:50.893Z,1.10
2019-06-08T05:28:21.585Z,0.90
2019-06-08T05:30:51.197Z,0.80
2019-06-08T05:33:21.028Z,0.67
2019-06-08T05:35:50.707Z,0.93
2019-06-08T05:38:20.372Z,0.87
2019-06-08T05:40:50.083Z,0.90
2019-06-08T05:43:20.054Z,0.93
2019-06-08T05:45:50.005Z,1.17
2019-06-08T05:48:19.811Z,1.10
2019-06-08T05:51:00.537Z,1.10
2019-06-08T05:53:22.616Z,0.90
2019-06-08T05:55:52.570Z,0.80
2019-06-08T05:58:22.465Z,0.90
2019-06-08T06:00:52.154Z,0.80
2019-06-08T06:03:21.729Z,1.00
2019-06-08T06:05:51.414Z,1.00
2019-06-08T06:08:21.385Z,0.70
2019-06-08T06:10:51.432Z,0.90
2019-06-08T06:13:21.307Z,0.87
2019-06-08T06:15:51.751Z,0.90
2019-06-08T06:18:21.780Z,0.90
2019-06-08T06:20:51.667Z,0.90
2019-06-08T06:23:23.116Z,0.80
2019-06-08T06:25:54.900Z,0.80
2019-06-08T06:28:24.942Z,1.40
2019-06-08T06:30:54.729Z,1.00
2019-06-08T06:33:25.077Z,0.90
2019-06-08T06:35:55.104Z,0.70
2019-06-08T06:38:25.037Z,1.10
2019-06-08T06:40:55.605Z,0.80
2019-06-08T06:43:25.724Z,1.20
2019-06-08T06:45:55.707Z,1.03
2019-06-08T06:48:25.676Z,1.07
2019-06-08T06:50:56.650Z,1.00
2019-06-08T06:53:26.490Z,0.80
2019-06-08T06:55:56.612Z,1.00
2019-06-08T06:58:26.737Z,0.80
2019-06-08T07:00:56.720Z,1.07
2019-06-08T07:03:26.771Z,0.57
2019-06-08T07:05:56.786Z,0.87
2019-06-08T07:08:26.782Z,1.37
2019-06-08T07:10:56.601Z,1.13
2019-06-08T07:13:26.352Z,0.80
2019-06-08T07:15:58.138Z,0.77
2019-06-08T07:18:28.651Z,0.90
2019-06-08T07:20:58.694Z,0.90
2019-06-08T07:23:28.927Z,1.07
2019-06-08T07:26:00.707Z,1.10
2019-06-08T07:28:30.959Z,1.20
2019-06-08T07:31:00.933Z,1.00
2019-06-08T07:33:30.968Z,0.87
2019-06-08T07:36:01.001Z,0.80
2019-06-08T07:38:30.949Z,0.93
2019-06-08T07:41:01.826Z,0.90
2019-06-08T07:43:32.016Z,0.90
2019-06-08T07:46:02.023Z,1.07
2019-06-08T07:48:33.036Z,0.80
2019-06-08T07:51:03.027Z,1.00
2019-06-08T07:53:33.094Z,0.83
2019-06-08T07:56:03.071Z,1.20
2019-06-08T07:58:33.465Z,1.37
2019-06-08T08:01:07.932Z,1.00
2019-06-08T08:03:35.114Z,1.10
2019-06-08T08:06:05.134Z,0.97
2019-06-08T08:08:35.469Z,1.30
2019-06-08T08:11:06.686Z,1.70
2019-06-08T08:13:40.115Z,0.80
2019-06-08T08:16:10.162Z,1.00
2019-06-08T08:18:39.998Z,1.07
2019-06-08T08:21:21.829Z,0.93
2019-06-08T08:23:42.222Z,1.10
2019-06-08T08:26:12.287Z,1.00
2019-06-08T08:28:55.260Z,1.10
2019-06-08T08:31:30.294Z,1.13
2019-06-08T08:34:05.767Z,1.47
2019-06-08T08:36:33.384Z,1.10
2019-06-08T08:39:03.600Z,0.93
2019-06-08T08:41:33.712Z,0.90
2019-06-08T08:44:08.245Z,1.00
2019-06-08T08:46:38.822Z,1.10
2019-06-08T08:49:12.586Z,1.17
2019-06-08T08:51:40.744Z,1.27
2019-06-08T08:54:10.823Z,1.67
2019-06-08T08:56:40.810Z,1.13
2019-06-08T08:59:11.408Z,1.13
2019-06-08T09:01:41.470Z,0.97
2019-06-08T09:04:11.381Z,1.03
2019-06-08T09:06:42.407Z,0.90
2019-06-08T09:09:12.457Z,0.90
2019-06-08T09:11:42.970Z,1.10
2019-06-08T09:14:14.258Z,1.10
2019-06-08T09:16:44.457Z,1.10
2019-06-08T09:19:14.524Z,1.50
2019-06-08T09:21:44.859Z,0.93
2019-06-08T09:24:15.475Z,1.47
2019-06-08T09:26:47.613Z,1.17
2019-06-08T09:29:18.879Z,1.37
2019-06-08T09:31:49.536Z,1.67
2019-06-08T09:34:20.064Z,1.10
2019-06-08T09:36:50.433Z,1.23
2019-06-08T09:39:20.660Z,1.20
2019-06-08T09:41:50.738Z,1.40
2019-06-08T09:44:24.678Z,2.57
2019-06-08T09:46:58.748Z,1.60
2019-06-08T09:49:28.313Z,1.63
2019-06-08T09:52:03.238Z,2.83
2019-06-08T09:54:34.179Z,2.50
2019-06-08T09:57:06.771Z,2.20
2019-06-08T09:59:38.555Z,2.30
2019-06-08T10:02:12.712Z,1.10
2019-06-08T10:04:41.187Z,1.10
2019-06-08T10:07:18.732Z,0.80
2019-06-08T10:09:50.305Z,1.43
2019-06-08T10:12:20.816Z,1.30
2019-06-08T10:14:56.378Z,1.47
2019-06-08T10:17:27.896Z,1.17
2019-06-08T10:20:00.613Z,1.30
2019-06-08T10:22:31.872Z,1.20
2019-06-08T10:25:06.572Z,1.30
2019-06-08T10:27:38.426Z,0.93
2019-06-08T10:30:11.331Z,1.20
2019-06-08T10:32:41.428Z,1.30
2019-06-08T10:35:12.909Z,1.10
2019-06-08T10:37:42.960Z,1.47
2019-06-08T10:40:12.970Z,1.80
2019-06-08T10:42:43.424Z,0.90
2019-06-08T10:45:14.990Z,1.17
2019-06-08T10:47:47.767Z,1.50
2019-06-08T10:50:19.184Z,0.90
2019-06-08T10:52:49.869Z,1.30
2019-06-08T10:55:20.880Z,1.27
2019-06-08T10:57:51.078Z,2.33
2019-06-08T11:00:24.643Z,1.07
2019-06-08T11:02:55.608Z,2.20
2019-06-08T11:05:28.066Z,1.67
2019-06-08T11:07:59.277Z,1.17
2019-06-08T11:10:30.097Z,1.30
2019-06-08T11:13:05.237Z,1.70
2019-06-08T11:15:32.019Z,1.17
2019-06-08T11:18:06.658Z,0.90
2019-06-08T11:20:34.349Z,1.30
2019-06-08T11:23:05.651Z,1.07
2019-06-08T11:25:37.812Z,1.27
2019-06-08T11:28:14.856Z,1.13
2019-06-08T11:30:47.944Z,1.20
2019-06-08T11:33:17.349Z,1.20
2019-06-08T11:35:47.702Z,1.10
2019-06-08T11:38:20.215Z,1.47
2019-06-08T11:40:57.524Z,1.00
2019-06-08T11:43:29.145Z,1.20
2019-06-08T11:46:00.546Z,0.97
2019-06-08T11:48:30.399Z,1.57
2019-06-08T11:51:00.632Z,1.67
2019-06-08T11:53:31.988Z,1.10
2019-06-08T11:56:04.636Z,1.17
2019-06-08T11:58:38.526Z,1.10
2019-06-08T12:01:13.759Z,1.20
2019-06-08T12:03:41.547Z,1.00
2019-06-08T12:06:14.106Z,1.10
2019-06-08T12:08:43.546Z,1.50
2019-06-08T12:11:18.070Z,1.10
2019-06-08T12:13:47.395Z,1.30
2019-06-08T12:16:21.608Z,1.20
2019-06-08T12:18:50.594Z,1.33
2019-06-08T12:21:20.705Z,1.10
2019-06-08T12:23:50.581Z,1.70
2019-06-08T12:26:20.756Z,1.17
2019-06-08T12:28:51.563Z,1.00
2019-06-08T12:31:22.787Z,0.90
2019-06-08T12:34:18.475Z,1.30
2019-06-08T12:36:48.258Z,1.00
2019-06-08T12:39:20.948Z,1.40
2019-06-08T12:41:49.734Z,1.30
2019-06-08T12:44:22.067Z,1.10
2019-06-08T12:46:51.702Z,1.30
2019-06-08T12:49:21.741Z,1.30
2019-06-08T12:51:54.729Z,1.00
2019-06-08T12:54:24.827Z,1.27
2019-06-08T12:56:54.783Z,1.33
2019-06-08T12:59:25.083Z,1.57
2019-06-08T13:01:55.307Z,1.23
2019-06-08T13:04:25.805Z,1.07
2019-06-08T13:06:58.348Z,1.10
2019-06-08T13:09:29.932Z,1.10
2019-06-08T13:12:00.246Z,1.63
2019-06-08T13:14:30.729Z,1.03
2019-06-08T13:17:04.215Z,0.97
2019-06-08T13:19:38.517Z,1.23
2019-06-08T13:22:08.977Z,1.13
2019-06-08T13:24:39.935Z,1.20
2019-06-08T13:27:13.201Z,1.00
2019-06-08T13:29:44.300Z,1.60
2019-06-08T13:32:16.538Z,1.43
2019-06-08T13:34:47.346Z,1.20
2019-06-08T13:37:22.295Z,1.10
2019-06-08T13:39:52.515Z,0.93
2019-06-08T13:42:23.248Z,1.43
2019-06-08T13:44:53.923Z,1.27
2019-06-08T13:47:28.303Z,1.07
2019-06-08T13:50:01.219Z,1.50
2019-06-08T13:52:31.104Z,1.30
2019-06-08T13:55:03.717Z,1.27
2019-06-08T13:57:37.927Z,1.60
2019-06-08T14:00:11.685Z,1.50
2019-06-08T14:02:50.310Z,1.93
2019-06-08T14:05:22.939Z,1.00
2019-06-08T14:07:50.320Z,1.20
2019-06-08T14:10:25.589Z,1.57
2019-06-08T14:12:58.617Z,1.40
2019-06-08T14:15:28.312Z,1.03
2019-06-08T14:17:58.752Z,1.20
2019-06-08T14:20:34.136Z,1.30
2019-06-08T14:23:01.324Z,1.87
2019-06-08T14:25:46.884Z,1.23
2019-06-08T14:28:04.185Z,1.20
2019-06-08T14:30:34.283Z,1.53
2019-06-08T14:33:04.455Z,1.23
2019-06-08T14:35:34.376Z,1.30
2019-06-08T14:38:04.494Z,1.70
2019-06-08T14:40:34.908Z,1.20
2019-06-08T14:43:13.068Z,1.30
2019-06-08T14:45:44.852Z,1.30
2019-06-08T14:48:15.453Z,1.27
2019-06-08T14:50:47.968Z,1.30
2019-06-08T14:53:18.860Z,1.40
2019-06-08T14:56:02.169Z,1.30
2019-06-08T14:58:24.007Z,1.40
2019-06-08T15:00:53.920Z,1.70
2019-06-08T15:03:25.226Z,1.13
2019-06-08T15:05:57.633Z,1.40
2019-06-08T15:08:28.620Z,1.40
2019-06-08T15:10:58.584Z,1.37
2019-06-08T15:13:30.039Z,1.17
2019-06-08T15:16:00.678Z,1.47
2019-06-08T15:18:31.910Z,1.10
2019-06-08T15:21:02.631Z,1.43
2019-06-08T15:23:34.003Z,1.20
2019-06-08T15:26:03.962Z,1.23
2019-06-08T15:28:36.310Z,1.17
2019-06-08T15:31:08.363Z,1.30
2019-06-08T15:33:39.350Z,1.20
2019-06-08T15:36:10.016Z,1.43
2019-06-08T15:38:40.773Z,1.17
2019-06-08T15:41:10.816Z,1.87
2019-06-08T15:43:41.167Z,1.23
2019-06-08T15:46:15.749Z,1.20
2019-06-08T15:48:52.158Z,1.30
2019-06-08T15:51:22.628Z,1.23
2019-06-08T15:53:54.364Z,1.20
2019-06-08T15:56:38.170Z,1.50
2019-06-08T15:58:59.166Z,1.23
2019-06-08T16:01:39.321Z,1.53
2019-06-08T16:04:17.226Z,1.83
2019-06-08T16:06:57.235Z,1.30
2019-06-08T16:09:28.438Z,1.47
2019-06-08T16:12:03.309Z,1.70
2019-06-08T16:14:37.247Z,1.40
2019-06-08T16:17:21.048Z,1.43
2019-06-08T16:19:55.541Z,1.53
2019-06-08T16:22:26.118Z,1.67
2019-06-08T16:24:56.866Z,1.73
2019-06-08T16:27:27.668Z,3.90
2019-06-08T16:30:09.638Z,2.27
2019-06-08T16:32:39.800Z,1.60
2019-06-08T16:35:14.535Z,1.60
2019-06-08T16:37:50.154Z,1.43
2019-06-08T16:40:20.622Z,1.50
2019-06-08T16:42:51.687Z,1.30
2019-06-08T16:45:37.632Z,1.33
2019-06-08T16:48:14.654Z,1.47
2019-06-08T16:51:04.449Z,1.40
2019-06-08T16:53:34.170Z,1.53
2019-06-08T16:56:05.248Z,1.40
2019-06-08T16:58:36.165Z,2.07
2019-06-08T17:01:11.543Z,2.03
2019-06-08T17:03:47.707Z,1.53
2019-06-08T17:06:18.309Z,1.50
2019-06-08T17:08:50.293Z,1.40
2019-06-08T17:11:20.207Z,1.63
2019-06-08T17:13:50.654Z,1.73
2019-06-08T17:16:22.883Z,1.70
2019-06-08T17:18:55.896Z,2.03
2019-06-08T17:21:26.157Z,1.50
2019-06-08T17:23:56.350Z,1.73
2019-06-08T17:26:26.706Z,1.20
2019-06-08T17:28:59.225Z,1.53
2019-06-08T17:31:35.134Z,1.70
2019-06-08T17:34:07.197Z,1.20
2019-06-08T17:36:38.610Z,1.30
2019-06-08T17:39:18.788Z,1.47
2019-06-08T17:42:03.421Z,1.33
2019-06-08T17:44:34.881Z,1.60
2019-06-08T17:47:05.536Z,1.60
2019-06-08T17:49:36.793Z,1.60
2019-06-08T17:52:16.006Z,1.40
2019-06-08T17:54:50.997Z,1.60
2019-06-08T17:57:23.935Z,1.40
2019-06-08T18:00:03.962Z,1.30
2019-06-08T18:02:35.542Z,1.27
2019-06-08T18:05:07.029Z,1.37
2019-06-08T18:07:39.034Z,1.70
2019-06-08T18:10:14.133Z,1.60
2019-06-08T18:12:49.316Z,1.33
2019-06-08T18:15:28.392Z,1.23
2019-06-08T18:18:00.812Z,1.43
2019-06-08T18:20:34.478Z,1.50
2019-06-08T18:23:07.901Z,1.50
2019-06-08T18:25:58.818Z,1.67
2019-06-08T18:28:48.528Z,1.80
2019-06-08T18:31:19.315Z,1.97
2019-06-08T18:34:01.188Z,1.97
2019-06-08T18:36:39.181Z,2.00
2019-06-08T18:39:31.616Z,1.80
2019-06-08T18:41:57.719Z,1.73
2019-06-08T18:44:48.598Z,2.00
2019-06-08T18:47:27.426Z,1.70
2019-06-08T18:50:08.754Z,1.40
2019-06-08T18:52:49.494Z,1.73
2019-06-08T18:55:27.520Z,2.10
2019-06-08T18:57:56.989Z,1.53
2019-06-08T19:00:41.929Z,2.23
2019-06-08T19:03:17.207Z,1.50
2019-06-08T19:06:10.670Z,2.30
2019-06-08T19:08:58.518Z,2.13
2019-06-08T19:11:45.378Z,1.90
2019-06-08T19:14:24.413Z,2.33
2019-06-08T19:17:03.305Z,1.70
2019-06-08T19:19:38.563Z,2.07
2019-06-08T19:22:09.338Z,2.10
2019-06-08T19:24:49.456Z,2.00
2019-06-08T19:27:22.187Z,2.67
2019-06-08T19:30:08.637Z,1.60
2019-06-08T19:32:42.925Z,4.10
2019-06-08T19:35:13.598Z,1.90
2019-06-08T19:38:54.615Z,2.43
2019-06-08T19:41:28.099Z,1.80
2019-06-08T19:44:00.086Z,2.13
2019-06-08T19:46:31.881Z,2.30
2019-06-08T19:49:03.964Z,1.90
2019-06-08T19:51:33.935Z,2.17
2019-06-08T19:54:04.457Z,1.80
2019-06-08T19:56:34.421Z,2.03
2019-06-08T19:59:08.173Z,1.73
2019-06-08T20:01:37.939Z,1.90
2019-06-08T20:04:08.346Z,2.00
2019-06-08T20:06:47.562Z,2.30
2019-06-08T20:09:23.982Z,1.67
2019-06-08T20:11:59.393Z,1.60
2019-06-08T20:14:37.361Z,1.63
2019-06-08T20:17:17.222Z,1.80
2019-06-08T20:19:48.927Z,1.50
2019-06-08T20:22:23.468Z,1.50
2019-06-08T20:24:56.019Z,1.50
2019-06-08T20:27:27.765Z,1.37
2019-06-08T20:30:08.140Z,1.30
2019-06-08T20:32:44.955Z,1.40
2019-06-08T20:35:27.871Z,1.80
2019-06-08T20:37:57.948Z,1.30
2019-06-08T20:40:28.672Z,1.30
2019-06-08T20:42:59.328Z,1.30
2019-06-08T20:45:30.742Z,1.43
2019-06-08T20:48:27.553Z,1.60
2019-06-08T20:51:02.942Z,1.60
2019-06-08T20:53:38.886Z,1.30
2019-06-08T20:56:17.407Z,1.63
2019-06-08T20:58:51.351Z,1.20
2019-06-08T21:01:23.023Z,1.20
2019-06-08T21:04:00.613Z,1.73
2019-06-08T21:06:35.732Z,2.73
2019-06-08T21:09:07.936Z,3.67
2019-06-08T21:11:38.318Z,4.10
2019-06-08T21:14:08.476Z,3.03
2019-06-08T21:16:44.545Z,2.37
2019-06-08T21:19:18.092Z,1.90
2019-06-08T21:21:54.612Z,1.70
2019-06-08T21:24:24.860Z,1.27
2019-06-08T21:27:03.065Z,1.30
2019-06-08T21:29:49.088Z,1.70
2019-06-08T21:32:14.624Z,1.50
2019-06-08T21:34:49.287Z,1.60
2019-06-08T21:37:23.595Z,1.73
2019-06-08T21:39:56.949Z,1.60
2019-06-08T21:42:27.823Z,1.23
2019-06-08T21:45:06.183Z,1.50
2019-06-08T21:47:38.492Z,1.40
2019-06-08T21:50:23.697Z,1.50
2019-06-08T21:53:03.289Z,1.57
2019-06-08T21:55:39.179Z,1.50
2019-06-08T21:58:17.850Z,1.20
2019-06-08T22:00:54.724Z,1.50
2019-06-08T22:03:37.916Z,1.77
2019-06-08T22:06:08.036Z,1.30
2019-06-08T22:08:38.221Z,1.60
2019-06-08T22:11:12.533Z,1.43
2019-06-08T22:13:47.595Z,1.30
2019-06-08T22:16:17.333Z,1.63
2019-06-08T22:18:53.057Z,1.33
2019-06-08T22:21:30.184Z,1.30
2019-06-08T22:24:07.745Z,1.40
2019-06-08T22:26:41.218Z,1.20
2019-06-08T22:29:11.721Z,1.30
2019-06-08T22:31:42.254Z,1.43
2019-06-08T22:34:17.489Z,1.30
2019-06-08T22:36:54.153Z,1.50
2019-06-08T22:39:27.973Z,1.40
2019-06-08T22:42:01.375Z,1.07
2019-06-08T22:44:34.070Z,1.30
2019-06-08T22:47:08.230Z,1.33
2019-06-08T22:49:38.611Z,1.17
2019-06-08T22:53:07.807Z,1.53
2019-06-08T22:55:38.365Z,1.30
2019-06-08T22:58:09.390Z,1.30
2019-06-08T23:00:51.387Z,1.30
2019-06-08T23:03:14.055Z,1.23
2019-06-08T23:05:55.108Z,1.00
2019-06-08T23:08:23.502Z,1.60
2019-06-08T23:10:58.575Z,1.20
2019-06-08T23:13:29.146Z,1.20
2019-06-08T23:16:04.381Z,1.60
2019-06-08T23:18:37.301Z,1.80
2019-06-08T23:21:08.898Z,1.10
2019-06-08T23:23:42.274Z,1.20
2019-06-08T23:26:15.509Z,1.43
2019-06-08T23:28:47.549Z,1.40
2019-06-08T23:31:24.915Z,1.40
2019-06-08T23:33:50.915Z,1.47
2019-06-08T23:36:46.725Z,1.30
2019-06-08T23:39:13.829Z,2.37
2019-06-08T23:41:47.855Z,1.40
2019-06-08T23:44:19.990Z,1.70
2019-06-08T23:46:53.717Z,1.37
2019-06-08T23:49:31.914Z,1.47
2019-06-08T23:52:09.876Z,1.60
2019-06-08T23:54:37.756Z,1.30
2019-06-08T23:57:12.054Z,1.50
2019-06-08T23:59:47.876Z,1.57
